📊 Raw Sensor Data
Showing records 40051 to 40075 of 84,956 total
| ID | Distance (ft) | Battery V | Battery A | Int Temp (°F) | Int Humid (%) | Ext Temp (°F) | Solar V | RSSI | SNR | Time Stamp |
|---|---|---|---|---|---|---|---|---|---|---|
| 44918 | 15.3 | 3.80 | -5 | 64 | 46 | 66 | 0.00 | -66 | 8 | 06/30/2025 12:00 AM |
| 44917 | 15.3 | 3.80 | -5 | 65 | 46 | 66 | 0.00 | -66 | 8 | 06/29/2025 11:45 PM |
| 44916 | 15.3 | 3.94 | -5 | 66 | 46 | 68 | 0.10 | -67 | 8 | 06/29/2025 11:30 PM |
| 44915 | 15.3 | 3.94 | -5 | 67 | 46 | 67 | 0.10 | -68 | 8 | 06/29/2025 11:15 PM |
| 44914 | 15.3 | 3.83 | -5 | 68 | 46 | 68 | 0.00 | -67 | 8 | 06/29/2025 11:00 PM |
| 44913 | 15.3 | 3.85 | -5 | 68 | 47 | 69 | 0.00 | -69 | 8 | 06/29/2025 10:45 PM |
| 44912 | 15.3 | 3.85 | -5 | 69 | 47 | 70 | 0.00 | -69 | 8 | 06/29/2025 10:30 PM |
| 44911 | 15.3 | 3.85 | -5 | 70 | 47 | 71 | 0.00 | -69 | 7 | 06/29/2025 10:15 PM |
| 44910 | 15.3 | 3.95 | -5 | 71 | 48 | 72 | 0.00 | -74 | 7 | 06/29/2025 09:45 PM |
| 44909 | 15.3 | 3.85 | -5 | 72 | 49 | 72 | 0.00 | -71 | 8 | 06/29/2025 09:30 PM |
| 44908 | 15.3 | 3.95 | -5 | 73 | 51 | 72 | 0.00 | -70 | 8 | 06/29/2025 09:15 PM |
| 44907 | 15.3 | 3.86 | -5 | 74 | 52 | 73 | 0.10 | -70 | 8 | 06/29/2025 09:00 PM |
| 44906 | 15.3 | 3.96 | -5 | 75 | 54 | 74 | 1.00 | -71 | 8 | 06/29/2025 08:45 PM |
| 44905 | 15.4 | 3.85 | -19 | 78 | 54 | 75 | 3.20 | -72 | 7 | 06/29/2025 08:30 PM |
| 44904 | 15.4 | 3.88 | 0 | 83 | 53 | 78 | 4.60 | -72 | 8 | 06/29/2025 08:15 PM |
| 44903 | 15.4 | 3.99 | 0 | 86 | 53 | 81 | 4.50 | -71 | 7 | 06/29/2025 08:00 PM |
| 44902 | 15.5 | 4.00 | 8 | 89 | 53 | 83 | 4.50 | -71 | 7 | 06/29/2025 07:45 PM |
| 44901 | 15.5 | 4.01 | 0 | 92 | 52 | 85 | 4.50 | -74 | 7 | 06/29/2025 07:30 PM |
| 44900 | 15.5 | 4.04 | 8 | 94 | 52 | 87 | 4.50 | -72 | 8 | 06/29/2025 07:15 PM |
| 44899 | 15.5 | 4.05 | 10 | 96 | 52 | 89 | 4.60 | -71 | 7 | 06/29/2025 07:00 PM |
| 44898 | 15.6 | 4.11 | 28 | 98 | 51 | 91 | 4.50 | -73 | 8 | 06/29/2025 06:45 PM |
| 44897 | 15.5 | 3.94 | 0 | 99 | 51 | 91 | 5.10 | -73 | 8 | 06/29/2025 06:30 PM |
| 44896 | 15.5 | 3.94 | 0 | 100 | 50 | 92 | 5.10 | -72 | 7 | 06/29/2025 06:15 PM |
| 44895 | 15.6 | 3.94 | 0 | 101 | 49 | 95 | 5.10 | -71 | 8 | 06/29/2025 06:00 PM |
| 44894 | 15.6 | 4.00 | 0 | 102 | 49 | 93 | 5.10 | -72 | 7 | 06/29/2025 05:45 PM |